Time;durP1;ratioP1;P1;durP2;ratioP2;P2;SDS_P1;SDS_P2;PMS_P1;PMS_P2;Temp;Humidity;BMP_temperature;BMP_pressure;BME280_temperature;BME280_humidity;BME280_pressure;Samples;Min_cycle;Max_cycle;Signal;HPM_P1;HPM_P2
2023/08/18 00:00:15;;;;;;;2.67;1.00;;;17.80;1.00;;;;;;5038878;28;20474;-72
2023/08/18 00:02:40;;;;;;;2.83;0.90;;;17.80;1.00;;;;;;5043954;28;20415;-72
2023/08/18 00:05:07;;;;;;;3.28;0.90;;;17.80;1.00;;;;;;5029762;28;20441;-72
2023/08/18 00:07:33;;;;;;;2.58;0.80;;;17.80;1.00;;;;;;5028706;28;20423;-72
2023/08/18 00:09:58;;;;;;;3.00;1.00;;;17.80;1.00;;;;;;5029944;28;20541;-72
2023/08/18 00:12:24;;;;;;;3.53;1.00;;;17.80;1.00;;;;;;5030073;28;20413;-72
2023/08/18 00:14:53;;;;;;;2.30;0.90;;;17.80;1.00;;;;;;5030770;28;20421;-72
2023/08/18 00:17:19;;;;;;;2.20;0.90;;;17.80;1.00;;;;;;4995852;28;20412;-71
2023/08/18 00:19:45;;;;;;;2.65;0.90;;;17.80;1.00;;;;;;5012526;28;20406;-71
2023/08/18 00:22:11;;;;;;;2.30;0.73;;;17.70;1.00;;;;;;5030035;28;20411;-71
2023/08/18 00:24:36;;;;;;;2.92;0.90;;;17.80;1.00;;;;;;5041386;28;20433;-71
2023/08/18 00:27:02;;;;;;;2.00;0.70;;;17.70;1.00;;;;;;5049234;28;20401;-71
2023/08/18 00:29:28;;;;;;;3.08;0.98;;;17.80;1.00;;;;;;5038038;28;20419;-71
2023/08/18 00:31:54;;;;;;;3.30;0.80;;;17.70;1.00;;;;;;5046991;28;20409;-71
2023/08/18 00:34:19;;;;;;;2.22;1.00;;;17.80;1.00;;;;;;5038155;28;20403;-71
2023/08/18 00:36:45;;;;;;;2.47;0.80;;;17.70;1.00;;;;;;5029597;28;20469;-71
2023/08/18 00:39:11;;;;;;;2.65;0.70;;;17.70;1.00;;;;;;5029793;28;20430;-71
2023/08/18 00:41:36;;;;;;;2.50;0.90;;;17.70;1.00;;;;;;5029365;28;20497;-71
2023/08/18 00:44:02;;;;;;;1.95;0.75;;;17.70;1.00;;;;;;5029738;28;20776;-71
2023/08/18 00:46:28;;;;;;;2.87;1.00;;;17.70;1.00;;;;;;5030890;28;20476;-72
2023/08/18 00:49:01;;;;;;;3.23;1.10;;;17.70;1.00;;;;;;5049004;28;20412;-71
2023/08/18 00:51:26;;;;;;;2.50;0.80;;;17.70;1.00;;;;;;5035354;28;20408;-71
2023/08/18 00:53:53;;;;;;;3.03;1.07;;;17.60;1.00;;;;;;5025980;28;20416;-71
2023/08/18 00:56:19;;;;;;;4.85;1.13;;;17.60;1.00;;;;;;5040852;28;20918;-71
2023/08/18 00:58:45;;;;;;;1.52;0.80;;;17.60;1.00;;;;;;5035173;28;20998;-71
2023/08/18 01:01:13;;;;;;;3.33;1.00;;;17.60;1.00;;;;;;5040863;28;20413;-71
2023/08/18 01:03:39;;;;;;;2.70;0.90;;;17.60;1.00;;;;;;5040135;28;20425;-71
2023/08/18 01:06:05;;;;;;;2.63;0.80;;;17.60;1.00;;;;;;5033701;28;20923;-71
2023/08/18 01:08:30;;;;;;;3.03;0.90;;;17.70;1.00;;;;;;5015650;28;20418;-71
2023/08/18 01:11:06;;;;;;;1.80;0.75;;;17.60;1.00;;;;;;5031534;28;20490;-71
2023/08/18 01:13:54;;;;;;;2.80;0.90;;;17.60;1.00;;;;;;5032501;28;20490;-71
2023/08/18 01:16:26;;;;;;;2.07;0.80;;;17.70;1.00;;;;;;5034171;28;20923;-71
2023/08/18 01:18:53;;;;;;;2.05;0.90;;;17.70;1.00;;;;;;5031354;28;20438;-71
2023/08/18 01:21:21;;;;;;;2.03;0.98;;;17.70;1.00;;;;;;5040747;28;20441;-71
2023/08/18 01:23:47;;;;;;;2.75;1.20;;;17.70;1.00;;;;;;5040193;28;20442;-71
2023/08/18 01:26:12;;;;;;;2.25;0.90;;;17.60;1.00;;;;;;5031623;28;20419;-71
2023/08/18 01:28:38;;;;;;;2.23;1.20;;;17.70;1.00;;;;;;5033935;28;20442;-71
2023/08/18 01:31:09;;;;;;;2.00;1.00;;;17.60;1.00;;;;;;5030996;28;20403;-71
2023/08/18 01:33:40;;;;;;;3.83;1.23;;;17.60;1.00;;;;;;5034500;28;20914;-71
2023/08/18 01:36:12;;;;;;;4.13;1.42;;;17.60;1.00;;;;;;5032334;28;20494;-71
2023/08/18 01:38:38;;;;;;;2.90;1.17;;;17.60;1.00;;;;;;5034185;28;20443;-71
2023/08/18 01:41:09;;;;;;;3.90;1.15;;;17.60;1.00;;;;;;5029790;28;20407;-72
2023/08/18 01:43:34;;;;;;;2.50;1.10;;;17.60;1.00;;;;;;5033795;28;20418;-71
2023/08/18 01:46:03;;;;;;;2.87;1.10;;;17.50;1.00;;;;;;5034184;28;20403;-71
2023/08/18 01:48:29;;;;;;;3.60;1.40;;;17.50;1.00;;;;;;5032894;28;20418;-71
2023/08/18 01:50:54;;;;;;;2.93;1.00;;;17.50;1.00;;;;;;5034901;28;20405;-71
2023/08/18 01:53:20;;;;;;;2.38;1.30;;;17.50;1.00;;;;;;5034344;28;20829;-71
2023/08/18 01:55:46;;;;;;;4.27;1.73;;;17.50;1.00;;;;;;5034357;28;20415;-71
2023/08/18 01:58:11;;;;;;;4.22;1.63;;;17.50;1.00;;;;;;5031737;28;20415;-71
2023/08/18 02:00:37;;;;;;;4.00;1.63;;;17.50;1.00;;;;;;5031366;28;20411;-71
2023/08/18 02:03:03;;;;;;;3.55;1.67;;;17.50;1.00;;;;;;5031031;28;20419;-71
2023/08/18 02:05:29;;;;;;;5.00;1.67;;;17.50;1.00;;;;;;5030952;28;20797;-71
2023/08/18 02:07:55;;;;;;;3.00;1.48;;;17.50;1.00;;;;;;5031496;28;20399;-71
2023/08/18 02:10:21;;;;;;;3.63;1.53;;;17.50;1.00;;;;;;5031089;28;20834;-71
2023/08/18 02:12:46;;;;;;;5.25;1.80;;;17.50;1.00;;;;;;5030508;28;20421;-71
2023/08/18 02:15:12;;;;;;;4.67;1.20;;;17.50;1.00;;;;;;5030858;28;20414;-71
2023/08/18 02:17:38;;;;;;;3.38;1.65;;;17.50;1.00;;;;;;5030893;28;20429;-71
2023/08/18 02:20:04;;;;;;;4.03;1.80;;;17.50;1.00;;;;;;5012863;28;20808;-71
2023/08/18 02:22:30;;;;;;;4.15;1.75;;;17.60;1.00;;;;;;5030033;28;20908;-71
2023/08/18 02:24:55;;;;;;;3.53;1.75;;;17.50;1.00;;;;;;5031470;28;20430;-71
2023/08/18 02:27:21;;;;;;;5.93;1.70;;;17.50;1.00;;;;;;5030268;28;20442;-71
2023/08/18 02:29:47;;;;;;;4.90;2.00;;;17.50;1.00;;;;;;5030046;28;20407;-71
2023/08/18 02:32:12;;;;;;;3.20;1.50;;;17.60;1.00;;;;;;5029921;28;20919;-71
2023/08/18 02:34:38;;;;;;;5.38;1.80;;;17.60;1.00;;;;;;5029524;28;20476;-71
2023/08/18 02:37:04;;;;;;;4.67;1.93;;;17.60;1.00;;;;;;5030651;28;20398;-72
2023/08/18 02:39:30;;;;;;;4.17;1.80;;;17.60;1.00;;;;;;5030460;28;20411;-72
2023/08/18 02:41:56;;;;;;;4.13;1.70;;;17.60;1.00;;;;;;5030263;28;20410;-72
2023/08/18 02:44:25;;;;;;;3.80;1.63;;;17.60;1.00;;;;;;5029920;28;20542;-72
2023/08/18 02:46:51;;;;;;;3.97;1.92;;;17.60;1.00;;;;;;5030633;28;20438;-72
2023/08/18 02:49:17;;;;;;;4.93;1.98;;;17.60;1.00;;;;;;5030652;28;20489;-72
2023/08/18 02:51:42;;;;;;;4.05;2.17;;;17.60;1.00;;;;;;5028223;28;20823;-72
2023/08/18 02:54:08;;;;;;;4.13;1.70;;;17.60;1.00;;;;;;5030584;28;20947;-72
2023/08/18 02:56:34;;;;;;;5.15;1.80;;;17.60;1.00;;;;;;5028769;28;20478;-72
2023/08/18 02:58:59;;;;;;;3.87;1.83;;;17.60;1.00;;;;;;5029713;28;20403;-72
2023/08/18 03:01:25;;;;;;;4.22;2.00;;;17.60;1.00;;;;;;5012067;28;20449;-72
2023/08/18 03:03:51;;;;;;;4.73;2.20;;;17.60;1.00;;;;;;5030435;28;20466;-72
2023/08/18 03:06:16;;;;;;;5.95;2.40;;;17.60;1.00;;;;;;5030732;28;20498;-72
2023/08/18 03:08:42;;;;;;;5.33;2.13;;;17.60;1.00;;;;;;5029671;28;20418;-72
2023/08/18 03:11:08;;;;;;;4.22;1.80;;;17.60;1.00;;;;;;5029393;28;20411;-72
2023/08/18 03:13:34;;;;;;;4.68;2.42;;;17.60;1.00;;;;;;5029636;28;21068;-72
2023/08/18 03:15:59;;;;;;;5.30;2.20;;;17.60;1.00;;;;;;5030178;28;20438;-72
2023/08/18 03:18:25;;;;;;;3.90;2.30;;;17.60;1.00;;;;;;5011464;28;20411;-72
2023/08/18 03:21:00;;;;;;;5.10;2.30;;;17.60;1.00;;;;;;5029231;28;20399;-72
2023/08/18 03:23:25;;;;;;;3.95;1.98;;;17.60;1.00;;;;;;5028338;28;20909;-72
2023/08/18 03:25:51;;;;;;;5.00;2.27;;;17.60;1.00;;;;;;5028355;28;20557;-72
2023/08/18 03:28:17;;;;;;;5.03;2.00;;;17.50;1.00;;;;;;5032528;28;20603;-72
2023/08/18 03:30:42;;;;;;;4.10;2.22;;;17.60;1.00;;;;;;5031051;28;20399;-72
2023/08/18 03:33:08;;;;;;;5.37;2.10;;;17.60;1.00;;;;;;5033998;28;20765;-72
2023/08/18 03:35:37;;;;;;;6.00;2.25;;;17.60;1.00;;;;;;5031357;28;20442;-72
2023/08/18 03:38:05;;;;;;;4.27;1.93;;;17.60;1.00;;;;;;5034414;28;20479;-72
2023/08/18 03:40:31;;;;;;;7.00;2.40;;;17.60;1.00;;;;;;5033447;28;20426;-71
2023/08/18 03:42:57;;;;;;;5.63;2.10;;;17.50;1.00;;;;;;5036426;28;20413;-72
2023/08/18 03:45:23;;;;;;;4.43;2.00;;;17.50;1.00;;;;;;5029898;28;20423;-72
2023/08/18 03:47:50;;;;;;;5.40;2.20;;;17.60;1.00;;;;;;5036737;28;20756;-72
2023/08/18 03:50:15;;;;;;;3.85;1.88;;;17.50;1.00;;;;;;5033765;28;20747;-72
2023/08/18 03:52:41;;;;;;;4.32;2.17;;;17.50;1.00;;;;;;5032369;28;20504;-72
2023/08/18 03:55:07;;;;;;;4.50;2.20;;;17.50;1.00;;;;;;5034775;28;20825;-72
2023/08/18 03:57:32;;;;;;;5.45;2.17;;;17.50;1.00;;;;;;5035667;28;20411;-72
2023/08/18 03:59:58;;;;;;;5.73;2.30;;;17.60;1.00;;;;;;5031764;28;20757;-70
2023/08/18 04:02:24;;;;;;;5.45;2.08;;;17.60;1.00;;;;;;5031830;28;20399;-71
2023/08/18 04:04:49;;;;;;;4.17;2.07;;;17.60;1.00;;;;;;5031338;28;20792;-71
2023/08/18 04:07:16;;;;;;;5.60;2.50;;;17.60;1.00;;;;;;5033801;28;20433;-71
2023/08/18 04:09:41;;;;;;;5.00;2.00;;;17.60;1.00;;;;;;5032694;28;20422;-70
2023/08/18 04:12:07;;;;;;;3.53;2.07;;;17.60;1.00;;;;;;5000971;28;20903;-71
2023/08/18 04:14:32;;;;;;;6.13;2.47;;;17.60;1.00;;;;;;5032372;28;20422;-72
2023/08/18 04:16:58;;;;;;;5.13;2.40;;;17.60;1.00;;;;;;5034306;28;20419;-72
2023/08/18 04:19:24;;;;;;;4.53;2.50;;;17.60;1.00;;;;;;5032589;28;20403;-72
2023/08/18 04:21:50;;;;;;;5.83;2.60;;;17.60;1.00;;;;;;5033837;28;20406;-72
2023/08/18 04:24:15;;;;;;;5.70;2.47;;;17.60;1.00;;;;;;5032303;28;20908;-72
2023/08/18 04:26:41;;;;;;;5.53;2.50;;;17.60;1.00;;;;;;5034216;28;20773;-72
2023/08/18 04:29:06;;;;;;;6.38;2.67;;;17.60;1.00;;;;;;5032018;28;21130;-72
2023/08/18 04:31:32;;;;;;;3.97;2.33;;;17.60;1.00;;;;;;5034498;28;20430;-72
2023/08/18 04:33:58;;;;;;;4.50;2.67;;;17.70;1.00;;;;;;5035448;28;20411;-72
2023/08/18 04:36:24;;;;;;;8.87;3.03;;;17.70;1.00;;;;;;5034667;28;20491;-72
2023/08/18 04:38:49;;;;;;;3.90;2.50;;;17.70;1.00;;;;;;5034850;28;20514;-72
2023/08/18 04:41:15;;;;;;;5.73;2.90;;;17.70;1.00;;;;;;5035216;28;20478;-72
2023/08/18 04:43:41;;;;;;;5.47;2.80;;;17.70;1.20;;;;;;5035359;28;20443;-72
2023/08/18 04:46:07;;;;;;;4.00;2.53;;;17.70;1.60;;;;;;5035097;28;20399;-72
2023/08/18 04:48:32;;;;;;;5.73;2.47;;;17.70;2.70;;;;;;5036648;28;21208;-72
2023/08/18 04:50:58;;;;;;;5.20;2.67;;;17.70;4.40;;;;;;5036091;28;20487;-72
2023/08/18 04:53:24;;;;;;;4.93;2.50;;;17.60;3.50;;;;;;5038499;28;20399;-72
2023/08/18 04:55:49;;;;;;;6.93;2.78;;;17.70;3.70;;;;;;5036573;28;20395;-73
2023/08/18 04:58:15;;;;;;;5.57;2.40;;;17.70;4.70;;;;;;5035910;28;20402;-71
2023/08/18 05:00:41;;;;;;;4.30;2.70;;;17.70;7.10;;;;;;5016163;28;20419;-70
2023/08/18 05:03:08;;;;;;;5.15;2.75;;;17.70;6.40;;;;;;5032723;28;20493;-71
2023/08/18 05:05:38;;;;;;;5.00;2.58;;;17.70;4.90;;;;;;5033960;28;20431;-71
2023/08/18 05:08:04;;;;;;;4.73;2.50;;;17.70;5.80;;;;;;5032349;28;20521;-71
2023/08/18 05:10:29;;;;;;;6.07;2.60;;;17.70;5.90;;;;;;5035115;28;20906;-71
2023/08/18 05:12:55;;;;;;;5.05;2.72;;;17.70;5.60;;;;;;5032945;28;20410;-71
2023/08/18 05:15:22;;;;;;;5.47;2.90;;;17.70;6.00;;;;;;5035554;28;20501;-71
2023/08/18 05:17:48;;;;;;;5.57;3.25;;;17.80;5.90;;;;;;5033841;28;20498;-71
2023/08/18 05:20:14;;;;;;;7.53;3.40;;;17.80;6.70;;;;;;5036129;28;20409;-71
2023/08/18 05:22:40;;;;;;;6.30;3.28;;;17.80;6.80;;;;;;5033705;28;20411;-71
2023/08/18 05:25:08;;;;;;;7.72;3.25;;;17.80;6.90;;;;;;5030963;28;20448;-71
2023/08/18 05:27:34;;;;;;;8.20;3.40;;;17.80;8.50;;;;;;5029188;28;20415;-71
2023/08/18 05:30:00;;;;;;;6.28;3.50;;;17.80;8.70;;;;;;5032862;28;20421;-72
2023/08/18 05:32:26;;;;;;;6.30;3.10;;;17.80;8.10;;;;;;5033765;28;20403;-72
2023/08/18 05:34:55;;;;;;;7.65;3.10;;;17.80;9.10;;;;;;5031774;28;20891;-72
2023/08/18 05:37:24;;;;;;;5.68;3.33;;;17.80;9.90;;;;;;5034293;28;20407;-72
2023/08/18 05:39:50;;;;;;;6.40;3.57;;;17.80;10.20;;;;;;5038427;28;20417;-72
2023/08/18 05:42:15;;;;;;;7.45;3.80;;;17.80;10.20;;;;;;5034658;28;20407;-72
2023/08/18 05:44:44;;;;;;;7.73;3.47;;;17.80;10.90;;;;;;5038262;28;20775;-72
2023/08/18 05:47:09;;;;;;;6.83;3.80;;;17.80;11.20;;;;;;5035835;28;20403;-72
2023/08/18 05:49:35;;;;;;;6.97;3.28;;;17.80;11.60;;;;;;5039951;28;20397;-72
2023/08/18 05:52:00;;;;;;;7.77;3.63;;;17.90;12.10;;;;;;5035888;28;20765;-69
2023/08/18 05:54:26;;;;;;;8.43;3.95;;;17.90;11.40;;;;;;5038959;28;20435;-71
2023/08/18 05:56:52;;;;;;;6.83;3.37;;;17.90;12.30;;;;;;5036003;28;20407;-71
2023/08/18 05:59:18;;;;;;;6.45;3.90;;;18.00;13.00;;;;;;5033412;28;21196;-71
2023/08/18 06:01:43;;;;;;;8.10;3.83;;;18.00;12.60;;;;;;5031004;28;20460;-71
2023/08/18 06:04:09;;;;;;;8.30;4.28;;;18.00;14.20;;;;;;5033889;28;20825;-71
2023/08/18 06:06:35;;;;;;;7.93;4.28;;;18.00;12.30;;;;;;5030959;28;20472;-71
2023/08/18 06:09:01;;;;;;;8.90;4.30;;;18.00;12.60;;;;;;5033231;28;20752;-71
2023/08/18 06:11:27;;;;;;;7.55;3.83;;;18.00;12.80;;;;;;5030590;28;20413;-71
2023/08/18 06:13:53;;;;;;;7.15;4.20;;;18.00;12.70;;;;;;5031567;28;20398;-71
2023/08/18 06:16:19;;;;;;;7.77;3.97;;;18.00;12.70;;;;;;5032351;28;20949;-70
2023/08/18 06:18:44;;;;;;;6.63;3.80;;;18.00;14.50;;;;;;5035702;28;20440;-71
2023/08/18 06:21:10;;;;;;;5.77;3.73;;;18.10;14.90;;;;;;5031838;28;20414;-71
2023/08/18 06:23:36;;;;;;;6.88;4.07;;;18.10;14.80;;;;;;5035203;28;20389;-71
2023/08/18 06:26:02;;;;;;;7.80;4.40;;;18.20;14.30;;;;;;5030912;28;20801;-71
2023/08/18 06:28:27;;;;;;;6.60;4.53;;;18.20;13.80;;;;;;5036142;28;20435;-71
2023/08/18 06:30:53;;;;;;;7.97;4.60;;;18.20;14.00;;;;;;5033754;28;20406;-71
2023/08/18 06:33:19;;;;;;;9.27;4.68;;;18.20;13.40;;;;;;5037157;28;20507;-71
2023/08/18 06:35:49;;;;;;;10.82;4.75;;;18.20;12.50;;;;;;5034005;28;20486;-71
2023/08/18 06:38:14;;;;;;;7.95;4.63;;;18.30;12.50;;;;;;5031495;28;20764;-71
2023/08/18 06:40:44;;;;;;;7.75;4.53;;;18.30;13.10;;;;;;5028129;28;20407;-71
2023/08/18 06:43:09;;;;;;;9.07;4.50;;;18.30;12.10;;;;;;5033902;28;20473;-72
2023/08/18 06:45:35;;;;;;;8.90;4.83;;;18.40;13.70;;;;;;5034347;28;20572;-72
2023/08/18 06:48:01;;;;;;;9.27;5.10;;;18.40;12.60;;;;;;5035571;28;20403;-71
2023/08/18 06:50:26;;;;;;;10.30;4.80;;;18.50;9.60;;;;;;5034715;28;20430;-71
2023/08/18 06:52:52;;;;;;;9.75;5.00;;;18.50;9.00;;;;;;5038517;28;20532;-71
2023/08/18 06:55:17;;;;;;;8.73;5.23;;;18.50;8.80;;;;;;5035907;28;20403;-72
2023/08/18 06:57:43;;;;;;;8.13;5.03;;;18.50;8.70;;;;;;5036530;28;20964;-72
2023/08/18 07:00:13;;;;;;;8.35;5.25;;;18.60;9.70;;;;;;5030105;28;20481;-72
2023/08/18 07:02:39;;;;;;;10.35;5.70;;;18.60;7.00;;;;;;5031007;28;20409;-72
2023/08/18 07:05:07;;;;;;;10.13;5.68;;;18.60;9.70;;;;;;5034598;28;20426;-72
2023/08/18 07:07:36;;;;;;;8.90;5.30;;;18.70;9.50;;;;;;5037084;28;20766;-72
2023/08/18 07:10:01;;;;;;;11.00;5.05;;;18.70;9.00;;;;;;5034078;28;20403;-72
2023/08/18 07:12:27;;;;;;;9.47;5.07;;;18.70;7.10;;;;;;5037989;28;20397;-72
2023/08/18 07:14:53;;;;;;;8.27;5.15;;;18.70;7.40;;;;;;5034894;28;20399;-72
2023/08/18 07:17:18;;;;;;;10.63;6.00;;;18.70;6.60;;;;;;5037293;28;20422;-72
2023/08/18 07:19:44;;;;;;;10.13;5.57;;;18.70;7.40;;;;;;5034104;28;20431;-72
2023/08/18 07:22:09;;;;;;;10.88;5.70;;;18.80;7.80;;;;;;5037233;28;20408;-72
2023/08/18 07:24:35;;;;;;;9.20;5.27;;;18.70;8.70;;;;;;5033882;28;20569;-72
2023/08/18 07:27:01;;;;;;;10.55;5.38;;;18.70;8.10;;;;;;5037707;28;20563;-72
2023/08/18 07:29:27;;;;;;;9.13;5.67;;;18.70;7.80;;;;;;5033670;28;21000;-72
2023/08/18 07:31:52;;;;;;;11.77;5.35;;;18.80;7.50;;;;;;5040001;28;20427;-72
2023/08/18 07:34:18;;;;;;;8.30;4.43;;;18.80;8.10;;;;;;5035262;28;20395;-73
2023/08/18 07:36:43;;;;;;;11.65;5.68;;;18.80;8.70;;;;;;5034773;28;20410;-71
2023/08/18 07:39:12;;;;;;;8.85;5.97;;;18.80;7.80;;;;;;5035401;28;20948;-72
2023/08/18 07:41:40;;;;;;;9.98;5.90;;;18.80;8.60;;;;;;5027705;28;20821;-72
2023/08/18 07:44:05;;;;;;;10.30;6.20;;;18.70;7.40;;;;;;5034722;28;20512;-72
2023/08/18 07:46:31;;;;;;;9.32;6.15;;;18.70;7.30;;;;;;5020932;28;20496;-72
2023/08/18 07:48:57;;;;;;;10.80;6.10;;;18.70;8.80;;;;;;5040683;28;20876;-72
2023/08/18 07:51:22;;;;;;;11.03;6.00;;;18.70;10.20;;;;;;5042228;28;20908;-72
2023/08/18 07:53:48;;;;;;;9.52;5.88;;;18.70;11.20;;;;;;5039858;28;20413;-72
2023/08/18 07:56:14;;;;;;;9.30;5.63;;;18.80;11.80;;;;;;5041244;28;21068;-72
2023/08/18 07:58:39;;;;;;;9.15;5.90;;;18.80;11.40;;;;;;5030738;28;20419;-72
2023/08/18 08:01:05;;;;;;;9.93;6.00;;;18.80;11.00;;;;;;5035498;28;20409;-72
2023/08/18 08:03:32;;;;;;;9.75;5.45;;;18.90;12.30;;;;;;5030451;28;20435;-72
2023/08/18 08:05:57;;;;;;;10.43;5.90;;;18.90;11.00;;;;;;5035669;28;20429;-72
2023/08/18 08:08:23;;;;;;;8.93;5.97;;;18.90;12.90;;;;;;5033253;28;20452;-72
2023/08/18 08:10:49;;;;;;;10.77;6.68;;;18.90;13.80;;;;;;5032202;28;20925;-72
2023/08/18 08:13:15;;;;;;;10.80;6.88;;;18.90;14.50;;;;;;5010744;28;20480;-71
2023/08/18 08:15:45;;;;;;;12.23;7.05;;;18.90;11.80;;;;;;5039954;28;20417;-70
2023/08/18 08:18:13;;;;;;;8.07;6.05;;;18.90;12.60;;;;;;5021614;28;20865;-69
2023/08/18 08:20:40;;;;;;;10.70;5.95;;;18.90;16.00;;;;;;5028830;28;20426;-71
2023/08/18 08:23:05;;;;;;;9.57;5.93;;;18.90;17.80;;;;;;5029960;28;20422;-71
2023/08/18 08:25:32;;;;;;;11.67;5.57;;;18.90;16.10;;;;;;5036074;28;21892;-71
2023/08/18 08:27:58;;;;;;;10.52;4.82;;;19.00;16.10;;;;;;5039767;28;20399;-69
2023/08/18 08:30:24;;;;;;;9.25;5.20;;;19.00;17.10;;;;;;5036662;28;20416;-71
2023/08/18 08:32:50;;;;;;;11.63;5.17;;;19.00;18.60;;;;;;5048691;28;20883;-70
2023/08/18 08:35:16;;;;;;;7.25;4.32;;;19.00;16.30;;;;;;5046387;28;20409;-71
2023/08/18 08:37:42;;;;;;;10.00;4.50;;;19.10;17.10;;;;;;5035149;28;20490;-72
2023/08/18 08:40:17;;;;;;;9.38;4.10;;;19.20;17.60;;;;;;5043657;28;20420;-66
2023/08/18 08:42:43;;;;;;;10.15;3.75;;;19.20;15.70;;;;;;5036591;28;20789;-69
2023/08/18 08:45:09;;;;;;;9.95;4.20;;;19.30;15.80;;;;;;5028671;28;20431;-69
2023/08/18 08:47:34;;;;;;;7.83;3.77;;;19.40;13.20;;;;;;5028108;28;20612;-70
2023/08/18 08:50:02;;;;;;;8.95;3.90;;;19.40;11.70;;;;;;5028838;28;20972;-69
2023/08/18 08:52:35;;;;;;;7.75;4.20;;;19.50;10.80;;;;;;5028391;28;20415;-71
2023/08/18 08:55:02;;;;;;;7.10;4.20;;;19.50;8.30;;;;;;5028814;28;20414;-71
2023/08/18 08:57:28;;;;;;;8.48;4.40;;;19.60;7.80;;;;;;5035530;28;20420;-71
2023/08/18 08:59:54;;;;;;;8.48;4.30;;;19.60;3.60;;;;;;5001516;28;20419;-71
2023/08/18 09:02:23;;;;;;;8.57;3.92;;;19.70;1.70;;;;;;5028060;28;20415;-70
2023/08/18 09:04:49;;;;;;;8.63;3.83;;;19.70;1.30;;;;;;5041073;28;20570;-71
2023/08/18 09:07:14;;;;;;;5.90;3.47;;;19.80;1.00;;;;;;5029521;28;20479;-71
2023/08/18 09:09:41;;;;;;;9.73;4.20;;;19.90;1.80;;;;;;5029211;28;20515;-71
2023/08/18 09:12:07;;;;;;;7.60;3.80;;;20.00;1.00;;;;;;5028083;28;20438;-71
2023/08/18 09:14:35;;;;;;;7.22;3.47;;;20.10;1.00;;;;;;5030236;28;20943;-71
2023/08/18 09:17:04;;;;;;;8.13;3.70;;;20.20;1.00;;;;;;5027431;28;20478;-71
2023/08/18 09:19:30;;;;;;;7.23;3.73;;;20.30;1.00;;;;;;5013648;28;20426;-71
2023/08/18 09:22:02;;;;;;;7.10;3.58;;;20.40;1.00;;;;;;5012354;28;20783;-71
2023/08/18 09:24:30;;;;;;;7.78;3.90;;;20.40;1.00;;;;;;5029405;28;20509;-71
2023/08/18 09:27:10;;;;;;;7.87;3.87;;;20.40;1.00;;;;;;5028741;28;20407;-71
2023/08/18 09:29:36;;;;;;;8.70;4.28;;;20.40;1.00;;;;;;5031936;28;20771;-71
2023/08/18 09:32:02;;;;;;;6.38;3.75;;;20.30;1.00;;;;;;5036744;28;20411;-71
2023/08/18 09:34:31;;;;;;;5.18;3.42;;;20.40;1.00;;;;;;5028891;28;20413;-71
2023/08/18 09:36:57;;;;;;;7.32;3.58;;;20.40;1.00;;;;;;5042422;28;20415;-71
2023/08/18 09:39:25;;;;;;;6.87;3.30;;;20.60;1.00;;;;;;5044520;28;20479;-71
2023/08/18 09:41:53;;;;;;;6.20;3.60;;;20.70;1.00;;;;;;5030116;28;20455;-71
2023/08/18 09:44:22;;;;;;;7.07;3.28;;;20.80;1.00;;;;;;5046313;28;20425;-71
2023/08/18 09:46:58;;;;;;;6.78;3.20;;;21.00;1.00;;;;;;5040643;28;20423;-71
2023/08/18 09:49:25;;;;;;;7.65;3.60;;;21.10;1.00;;;;;;5037627;28;20419;-71
2023/08/18 09:51:53;;;;;;;4.57;3.70;;;21.10;1.00;;;;;;5039880;28;20485;-71
2023/08/18 09:54:19;;;;;;;6.50;3.78;;;21.10;1.00;;;;;;5046417;28;20397;-71
2023/08/18 09:56:59;;;;;;;9.82;3.97;;;21.20;1.00;;;;;;5035072;28;20407;-71
2023/08/18 09:59:34;;;;;;;5.88;2.83;;;21.30;1.00;;;;;;5027842;28;20788;-71
2023/08/18 10:02:00;;;;;;;5.47;2.70;;;21.60;1.00;;;;;;5021304;28;20428;-71
2023/08/18 10:04:27;;;;;;;5.00;3.05;;;21.80;1.00;;;;;;5027877;28;21144;-71
2023/08/18 10:06:53;;;;;;;7.03;3.10;;;22.10;1.00;;;;;;5029219;28;21073;-71
2023/08/18 10:09:22;;;;;;;7.70;3.30;;;22.30;1.00;;;;;;5023856;28;20815;-71
2023/08/18 10:11:51;;;;;;;5.65;2.92;;;22.50;1.00;;;;;;5030596;28;20413;-71
2023/08/18 10:14:20;;;;;;;7.57;2.80;;;22.60;1.00;;;;;;5029766;28;20403;-71
2023/08/18 10:16:47;;;;;;;7.03;3.30;;;22.60;1.00;;;;;;5030808;28;20526;-71
2023/08/18 10:19:13;;;;;;;6.18;3.30;;;22.70;1.00;;;;;;5029472;28;20827;-71
2023/08/18 10:21:39;;;;;;;6.37;3.60;;;22.90;1.00;;;;;;5014590;28;20439;-71
2023/08/18 10:24:05;;;;;;;6.00;3.22;;;22.90;1.00;;;;;;5011935;28;20920;-71
2023/08/18 10:26:34;;;;;;;6.80;2.88;;;23.00;99.90;;;;;;5030183;28;20426;-71
2023/08/18 10:29:16;;;;;;;7.30;3.00;;;23.20;99.90;;;;;;5026890;28;20502;-71
2023/08/18 10:31:47;;;;;;;5.35;3.00;;;23.50;99.90;;;;;;5027328;28;20400;-71
2023/08/18 10:34:21;;;;;;;5.25;2.53;;;23.80;99.90;;;;;;5028616;28;20415;-71
2023/08/18 10:36:46;;;;;;;6.20;3.15;;;24.00;99.90;;;;;;5025067;28;20430;-71
2023/08/18 10:39:26;;;;;;;6.10;3.35;;;23.90;99.90;;;;;;5031289;28;20761;-70
2023/08/18 10:42:07;;;;;;;7.57;3.58;;;23.70;99.90;;;;;;5024664;28;20932;-71
2023/08/18 10:44:33;;;;;;;6.03;3.10;;;23.50;99.90;;;;;;5032289;28;20423;-72
2023/08/18 10:47:23;;;;;;;6.22;3.13;;;23.50;99.90;;;;;;5018793;28;20411;-72
2023/08/18 10:49:48;;;;;;;6.35;3.65;;;23.60;99.90;;;;;;5021748;28;20426;-71
2023/08/18 10:52:15;;;;;;;7.07;4.50;;;23.90;99.90;;;;;;5033620;28;20494;-72
2023/08/18 10:54:40;;;;;;;7.22;4.35;;;24.10;99.90;;;;;;5017973;28;20443;-72
2023/08/18 10:57:06;;;;;;;6.90;3.93;;;24.10;99.90;;;;;;5034463;28;20808;-72
2023/08/18 10:59:31;;;;;;;6.13;3.78;;;24.10;99.90;;;;;;5032915;28;20765;-72
2023/08/18 11:01:57;;;;;;;7.10;3.60;;;24.30;99.90;;;;;;5033791;28;20402;-72
2023/08/18 11:04:23;;;;;;;7.30;3.50;;;24.50;54.40;;;;;;5032210;28;20442;-72
2023/08/18 11:06:50;;;;;;;7.30;4.25;;;24.60;40.60;;;;;;5034336;28;20965;-72
2023/08/18 11:09:17;;;;;;;6.80;3.90;;;24.60;1.00;;;;;;5033528;28;20444;-73
2023/08/18 11:11:42;;;;;;;6.60;3.67;;;24.70;1.00;;;;;;5035755;28;20401;-72
2023/08/18 11:14:08;;;;;;;7.03;4.10;;;25.00;1.00;;;;;;5034743;28;20921;-72
2023/08/18 11:16:36;;;;;;;7.93;4.60;;;25.30;1.00;;;;;;5043929;28;20469;-72
2023/08/18 11:19:04;;;;;;;6.72;4.18;;;25.40;99.90;;;;;;5040987;28;20405;-72
2023/08/18 11:21:30;;;;;;;6.80;4.40;;;25.80;88.00;;;;;;5033442;28;20442;-72
2023/08/18 11:23:56;;;;;;;7.07;4.88;;;26.00;1.00;;;;;;5026700;28;20412;-72
2023/08/18 11:26:22;;;;;;;9.45;5.43;;;26.00;1.00;;;;;;5045640;28;20771;-72
2023/08/18 11:28:48;;;;;;;9.60;5.03;;;25.80;22.10;;;;;;5030791;28;20805;-72
2023/08/18 11:31:13;;;;;;;7.30;5.07;;;25.80;1.00;;;;;;5046546;28;20405;-72
2023/08/18 11:33:39;;;;;;;6.93;4.90;;;25.60;99.90;;;;;;5049991;28;20405;-71
2023/08/18 11:36:09;;;;;;;7.22;4.80;;;25.50;99.90;;;;;;5036064;28;20406;-72
2023/08/18 11:38:34;;;;;;;7.90;5.10;;;25.40;99.90;;;;;;5047342;28;20394;-72
2023/08/18 11:41:00;;;;;;;8.18;5.00;;;25.40;1.00;;;;;;5046718;28;20771;-72
2023/08/18 11:43:27;;;;;;;9.07;5.50;;;25.40;99.90;;;;;;5040285;28;20406;-72
2023/08/18 11:45:53;;;;;;;7.32;5.05;;;25.40;99.90;;;;;;5030574;28;20438;-72
2023/08/18 11:48:20;;;;;;;7.05;5.00;;;25.50;4.40;;;;;;5029677;28;20407;-72
2023/08/18 11:50:46;;;;;;;7.53;4.95;;;25.50;99.90;;;;;;5047000;28;20460;-72
2023/08/18 11:53:12;;;;;;;6.43;4.77;;;25.50;99.90;;;;;;5049185;28;20507;-72
2023/08/18 11:55:43;;;;;;;8.68;6.15;;;25.50;99.90;;;;;;5049097;28;20890;-72
2023/08/18 11:58:11;;;;;;;7.88;5.70;;;25.40;99.90;;;;;;5037170;28;20952;-72
2023/08/18 12:00:38;;;;;;;8.13;5.72;;;25.40;1.00;;;;;;5032300;28;20404;-72
2023/08/18 12:03:07;;;;;;;8.45;5.57;;;25.40;97.60;;;;;;5030847;28;20407;-72
2023/08/18 12:05:37;;;;;;;8.32;5.25;;;25.40;97.30;;;;;;5031914;28;20840;-72
2023/08/18 12:08:08;;;;;;;8.98;5.43;;;25.50;96.30;;;;;;5030123;28;20423;-72
2023/08/18 12:10:34;;;;;;;9.15;5.80;;;25.50;1.00;;;;;;5012193;28;20418;-72
2023/08/18 12:13:00;;;;;;;8.52;6.28;;;25.40;1.00;;;;;;5031256;28;20408;-71
2023/08/18 12:15:26;;;;;;;8.13;5.50;;;25.40;1.00;;;;;;5014049;28;20492;-71
2023/08/18 12:17:53;;;;;;;9.30;6.32;;;25.30;91.60;;;;;;5032549;28;21274;-71
2023/08/18 12:20:18;;;;;;;8.97;5.57;;;25.10;1.00;;;;;;5034589;28;20411;-71
2023/08/18 12:22:46;;;;;;;8.25;5.65;;;25.00;99.90;;;;;;5031226;28;20437;-71
2023/08/18 12:25:12;;;;;;;8.45;6.00;;;25.00;1.00;;;;;;5033470;28;20434;-71
2023/08/18 12:27:38;;;;;;;7.80;6.07;;;24.90;99.90;;;;;;5031764;28;20485;-71
2023/08/18 12:30:04;;;;;;;8.80;6.10;;;24.90;28.00;;;;;;5027706;28;20476;-71
2023/08/18 12:32:32;;;;;;;10.47;6.47;;;24.90;60.90;;;;;;5034922;28;20497;-71
2023/08/18 12:34:59;;;;;;;9.10;5.73;;;24.90;1.00;;;;;;5032930;28;20403;-71
2023/08/18 12:37:24;;;;;;;8.20;6.30;;;25.00;99.90;;;;;;5043529;28;20417;-71
2023/08/18 12:39:50;;;;;;;8.85;5.97;;;25.20;99.90;;;;;;5030314;28;20411;-72
2023/08/18 12:42:16;;;;;;;8.45;5.68;;;25.30;99.90;;;;;;5043752;28;20405;-72
2023/08/18 12:44:42;;;;;;;8.93;6.60;;;25.60;1.00;;;;;;5038722;28;20474;-72
2023/08/18 12:47:07;;;;;;;9.05;6.50;;;25.80;28.20;;;;;;5035529;28;20403;-72
2023/08/18 12:49:33;;;;;;;6.90;5.57;;;26.10;99.90;;;;;;5029014;28;20422;-72